createdAt,value
2018-12-29T00:00:08.716Z,4.20
2018-12-29T00:01:08.646Z,4.16
2018-12-29T00:02:08.730Z,4.13
2018-12-29T00:03:08.613Z,4.20
2018-12-29T00:04:08.643Z,4.18
2018-12-29T00:05:08.602Z,4.22
2018-12-29T00:06:08.683Z,4.25
2018-12-29T00:07:08.566Z,4.18
2018-12-29T00:08:08.566Z,4.24
2018-12-29T00:09:08.553Z,4.22
2018-12-29T00:10:08.581Z,4.16
2018-12-29T00:11:08.544Z,4.25
2018-12-29T00:12:08.612Z,4.24
2018-12-29T00:13:08.502Z,4.24
2018-12-29T00:14:08.504Z,4.31
2018-12-29T00:15:08.483Z,4.34
2018-12-29T00:16:10.595Z,4.24
2018-12-29T00:17:08.457Z,4.25
2018-12-29T00:18:09.571Z,4.25
2018-12-29T00:19:08.435Z,4.34
2018-12-29T00:20:08.446Z,4.32
2018-12-29T00:21:08.432Z,4.30
2018-12-29T00:22:16.958Z,4.34
2018-12-29T00:23:08.395Z,4.30
2018-12-29T00:24:08.478Z,4.32
2018-12-29T00:25:08.377Z,4.31
2018-12-29T00:26:08.410Z,4.31
2018-12-29T00:27:08.354Z,4.31
2018-12-29T00:28:08.396Z,4.30
2018-12-29T00:29:08.326Z,4.30
2018-12-29T00:30:08.410Z,4.27
2018-12-29T00:31:08.333Z,4.28
2018-12-29T00:32:08.326Z,4.40
2018-12-29T00:33:08.289Z,4.39
2018-12-29T00:34:08.336Z,4.43
2018-12-29T00:35:08.261Z,4.38
2018-12-29T00:36:08.379Z,4.46
2018-12-29T00:37:08.247Z,4.52
2018-12-29T00:38:08.261Z,4.52
2018-12-29T00:39:08.217Z,4.45
2018-12-29T00:40:08.276Z,4.43
2018-12-29T00:41:08.211Z,4.46
2018-12-29T00:42:08.289Z,4.58
2018-12-29T00:43:08.181Z,4.57
2018-12-29T00:44:08.199Z,4.61
2018-12-29T00:45:08.153Z,4.57
2018-12-29T00:46:08.280Z,4.57
2018-12-29T00:47:08.135Z,4.56
2018-12-29T00:48:08.226Z,4.58
2018-12-29T00:49:08.115Z,4.52
2018-12-29T00:50:08.142Z,4.56
2018-12-29T00:51:08.128Z,4.60
2018-12-29T00:52:08.158Z,4.57
2018-12-29T00:53:08.071Z,4.52
2018-12-29T00:54:08.191Z,4.63
2018-12-29T00:55:08.054Z,4.58
2018-12-29T00:56:08.087Z,4.57
2018-12-29T00:57:08.042Z,4.56
2018-12-29T00:58:08.097Z,4.53
2018-12-29T00:59:09.319Z,4.53
2018-12-29T01:00:08.106Z,4.49
2018-12-29T01:01:07.984Z,4.56
2018-12-29T01:02:09.072Z,4.53
2018-12-29T01:03:07.960Z,4.60
2018-12-29T01:04:09.064Z,4.52
2018-12-29T01:05:07.942Z,4.53
2018-12-29T01:06:07.948Z,4.53
2018-12-29T01:07:07.935Z,4.53
2018-12-29T01:08:10.014Z,4.53
2018-12-29T01:09:07.958Z,4.53
2018-12-29T01:10:09.915Z,4.53
2018-12-29T01:11:07.876Z,4.56
2018-12-29T01:12:07.915Z,4.50
2018-12-29T01:13:07.854Z,4.50
2018-12-29T01:14:07.909Z,4.53
2018-12-29T01:15:10.020Z,4.66
2018-12-29T01:16:07.919Z,4.50
2018-12-29T01:17:07.820Z,4.50
2018-12-29T01:18:07.819Z,4.64
2018-12-29T01:19:07.786Z,4.52
2018-12-29T01:20:07.834Z,4.56
2018-12-29T01:21:07.771Z,4.56
2018-12-29T01:22:07.873Z,4.53
2018-12-29T01:23:07.743Z,4.64
2018-12-29T01:24:07.758Z,4.60
2018-12-29T01:25:07.721Z,4.61
2018-12-29T01:26:07.771Z,4.61
2018-12-29T01:27:07.717Z,4.60
2018-12-29T01:28:07.789Z,4.57
2018-12-29T01:29:07.695Z,4.61
2018-12-29T01:30:07.702Z,4.66
2018-12-29T01:31:07.692Z,4.63
2018-12-29T01:32:07.746Z,4.60
2018-12-29T01:33:07.635Z,4.64
2018-12-29T01:34:07.735Z,4.57
2018-12-29T01:35:07.633Z,4.60
2018-12-29T01:36:07.652Z,4.61
2018-12-29T01:37:07.624Z,4.64
2018-12-29T01:38:07.652Z,4.58
2018-12-29T01:39:07.566Z,4.58
2018-12-29T01:40:07.671Z,4.56
2018-12-29T01:41:07.545Z,4.61
2018-12-29T01:42:07.602Z,4.60
2018-12-29T01:43:07.529Z,4.57
2018-12-29T01:44:07.594Z,4.64
2018-12-29T01:45:07.502Z,4.60
2018-12-29T01:46:07.604Z,4.60
2018-12-29T01:47:07.500Z,4.61
2018-12-29T01:48:07.521Z,4.58
2018-12-29T01:49:07.520Z,4.56
2018-12-29T01:50:08.557Z,4.60
2018-12-29T01:51:07.452Z,4.57
2018-12-29T01:52:07.479Z,4.60
2018-12-29T01:53:07.421Z,4.63
2018-12-29T01:54:09.517Z,4.66
2018-12-29T01:55:07.428Z,4.68
2018-12-29T01:56:09.435Z,4.67
2018-12-29T01:57:07.398Z,4.74
2018-12-29T01:58:07.457Z,4.66
2018-12-29T01:59:07.388Z,4.74
2018-12-29T02:00:07.415Z,4.67
2018-12-29T02:01:07.352Z,4.71
2018-12-29T02:02:07.440Z,4.66
2018-12-29T02:03:07.311Z,4.66
2018-12-29T02:04:07.345Z,4.63
2018-12-29T02:05:07.311Z,4.70
2018-12-29T02:06:07.336Z,4.71
2018-12-29T02:07:07.335Z,4.74
2018-12-29T02:08:07.349Z,4.71
2018-12-29T02:09:07.246Z,4.66
2018-12-29T02:10:07.292Z,4.67
2018-12-29T02:11:07.227Z,4.75
2018-12-29T02:12:07.326Z,4.71
2018-12-29T02:13:07.204Z,4.83
2018-12-29T02:14:07.297Z,4.86
2018-12-29T02:15:07.210Z,4.83
2018-12-29T02:16:07.212Z,4.71
2018-12-29T02:17:07.165Z,4.70
2018-12-29T02:18:07.255Z,4.71
2018-12-29T02:19:07.135Z,4.79
2018-12-29T02:20:07.224Z,4.82
2018-12-29T02:21:07.111Z,4.89
2018-12-29T02:22:07.165Z,4.82
2018-12-29T02:23:07.117Z,4.83
2018-12-29T02:24:07.153Z,4.78
2018-12-29T02:25:07.163Z,4.78
2018-12-29T02:26:07.251Z,4.98
2018-12-29T02:27:07.095Z,4.92
2018-12-29T02:28:07.151Z,4.92
2018-12-29T02:29:07.031Z,4.92
2018-12-29T02:30:07.105Z,4.97
2018-12-29T02:31:07.003Z,5.02
2018-12-29T02:32:07.114Z,5.00
2018-12-29T02:33:07.009Z,5.04
2018-12-29T02:34:07.020Z,4.95
2018-12-29T02:35:06.977Z,4.98
2018-12-29T02:36:07.029Z,4.98
2018-12-29T02:37:06.949Z,4.97
2018-12-29T02:38:07.013Z,5.00
2018-12-29T02:39:06.950Z,5.01
2018-12-29T02:40:27.993Z,5.00
2018-12-29T02:41:06.910Z,5.07
2018-12-29T02:42:06.880Z,5.08
2018-12-29T02:43:07.971Z,5.08
2018-12-29T02:44:06.873Z,5.07
2018-12-29T02:45:06.896Z,5.07
2018-12-29T02:46:06.857Z,5.04
2018-12-29T02:47:06.895Z,5.04
2018-12-29T02:48:06.863Z,5.02
2018-12-29T02:49:06.937Z,5.07
2018-12-29T02:50:06.796Z,5.01
2018-12-29T02:51:06.823Z,5.08
2018-12-29T02:52:06.788Z,5.13
2018-12-29T02:53:06.889Z,5.08
2018-12-29T02:54:06.757Z,5.13
2018-12-29T02:55:06.863Z,5.23
2018-12-29T02:56:06.742Z,5.23
2018-12-29T02:57:06.759Z,5.22
2018-12-29T02:58:06.737Z,5.20
2018-12-29T02:59:06.783Z,5.23
2018-12-29T03:00:06.691Z,5.23
2018-12-29T03:01:06.791Z,5.29
2018-12-29T03:02:06.671Z,5.23
2018-12-29T03:03:06.742Z,5.22
2018-12-29T03:04:06.663Z,5.26
2018-12-29T03:05:06.768Z,5.28
2018-12-29T03:06:06.717Z,5.25
2018-12-29T03:07:06.656Z,5.31
2018-12-29T03:08:06.686Z,5.29
2018-12-29T03:09:06.638Z,5.33
2018-12-29T03:10:06.597Z,5.20
2018-12-29T03:11:06.667Z,5.22
2018-12-29T03:12:06.566Z,5.23
2018-12-29T03:13:06.594Z,5.20
2018-12-29T03:14:06.546Z,5.28
2018-12-29T03:15:06.603Z,5.25
2018-12-29T03:16:06.542Z,5.23
2018-12-29T03:17:06.595Z,5.31
2018-12-29T03:18:06.510Z,5.28
2018-12-29T03:19:06.557Z,5.26
2018-12-29T03:20:06.510Z,5.19
2018-12-29T03:21:08.571Z,5.20
2018-12-29T03:22:06.470Z,5.22
2018-12-29T03:23:10.967Z,5.26
2018-12-29T03:24:06.440Z,5.23
2018-12-29T03:25:06.459Z,5.29
2018-12-29T03:26:06.419Z,5.18
2018-12-29T03:27:22.976Z,5.26
2018-12-29T03:28:06.487Z,5.31
2018-12-29T03:29:07.398Z,5.28
2018-12-29T03:30:06.364Z,5.18
2018-12-29T03:31:06.395Z,5.34
2018-12-29T03:32:06.381Z,5.28
2018-12-29T03:33:06.473Z,5.31
2018-12-29T03:34:06.344Z,5.29
2018-12-29T03:35:06.425Z,5.31
2018-12-29T03:36:06.337Z,5.22
2018-12-29T03:37:06.330Z,5.29
2018-12-29T03:38:06.315Z,5.34
2018-12-29T03:39:06.340Z,5.37
2018-12-29T03:40:06.270Z,5.33
2018-12-29T03:41:06.364Z,5.33
2018-12-29T03:42:06.239Z,5.29
2018-12-29T03:43:06.269Z,5.38
2018-12-29T03:44:06.227Z,5.34
2018-12-29T03:45:06.277Z,5.36
2018-12-29T03:46:06.217Z,5.36
2018-12-29T03:47:06.348Z,5.34
2018-12-29T03:48:06.174Z,5.25
2018-12-29T03:49:06.230Z,5.31
2018-12-29T03:50:06.149Z,5.38
2018-12-29T03:51:06.238Z,5.28
2018-12-29T03:52:06.144Z,5.37
2018-12-29T03:53:06.228Z,5.36
2018-12-29T03:54:06.121Z,5.26
2018-12-29T03:55:06.154Z,5.36
2018-12-29T03:56:06.093Z,5.34
2018-12-29T03:57:06.180Z,5.31
2018-12-29T03:58:06.058Z,5.26
2018-12-29T03:59:06.133Z,5.34
2018-12-29T04:00:06.050Z,5.34
2018-12-29T04:01:06.081Z,5.33
2018-12-29T04:02:06.015Z,5.28
2018-12-29T04:03:06.095Z,5.31
2018-12-29T04:04:06.023Z,5.28
2018-12-29T04:05:06.000Z,5.28
2018-12-29T04:06:05.992Z,5.23
2018-12-29T04:07:06.013Z,5.26
2018-12-29T04:08:05.959Z,5.22
2018-12-29T04:09:06.052Z,5.23
2018-12-29T04:10:05.929Z,5.18
2018-12-29T04:11:05.935Z,5.19
2018-12-29T04:12:05.908Z,5.25
2018-12-29T04:13:05.978Z,5.19
2018-12-29T04:14:05.904Z,5.18
2018-12-29T04:15:06.891Z,5.20
2018-12-29T04:16:05.862Z,5.23
2018-12-29T04:17:05.872Z,5.26
2018-12-29T04:18:05.841Z,5.23
2018-12-29T04:19:05.916Z,5.31
2018-12-29T04:20:05.813Z,5.20
2018-12-29T04:21:07.041Z,5.18
2018-12-29T04:22:05.811Z,5.28
2018-12-29T04:23:05.813Z,5.19
2018-12-29T04:24:05.786Z,5.28
2018-12-29T04:25:05.826Z,5.31
2018-12-29T04:26:05.749Z,5.20
2018-12-29T04:27:05.844Z,5.18
2018-12-29T04:28:05.729Z,5.18
2018-12-29T04:29:05.782Z,5.23
2018-12-29T04:30:05.712Z,5.28
2018-12-29T04:31:05.765Z,5.23
2018-12-29T04:32:05.684Z,5.20
2018-12-29T04:33:05.777Z,5.31
2018-12-29T04:34:05.680Z,5.19
2018-12-29T04:35:05.701Z,5.25
2018-12-29T04:36:05.639Z,5.26
2018-12-29T04:37:05.706Z,5.26
2018-12-29T04:38:05.618Z,5.26
2018-12-29T04:39:05.641Z,5.31
2018-12-29T04:40:05.595Z,5.25
2018-12-29T04:41:05.634Z,5.33
2018-12-29T04:42:05.577Z,5.28
2018-12-29T04:43:05.640Z,5.18
2018-12-29T04:44:05.570Z,5.23
2018-12-29T04:45:05.552Z,5.19
2018-12-29T04:46:05.575Z,5.29
2018-12-29T04:47:05.596Z,5.26
2018-12-29T04:48:05.511Z,5.28
2018-12-29T04:49:05.615Z,5.19
2018-12-29T04:50:05.493Z,5.28
2018-12-29T04:51:05.507Z,5.34
2018-12-29T04:52:05.468Z,5.31
2018-12-29T04:53:07.562Z,5.29
2018-12-29T04:54:05.494Z,5.29
2018-12-29T04:55:05.535Z,5.28
2018-12-29T04:56:05.440Z,5.29
2018-12-29T04:57:05.452Z,5.34
2018-12-29T04:58:05.409Z,5.29
2018-12-29T04:59:07.534Z,5.33
2018-12-29T05:00:05.411Z,5.22
2018-12-29T05:01:07.410Z,5.31
2018-12-29T05:02:05.361Z,5.28
2018-12-29T05:03:05.396Z,5.25
2018-12-29T05:04:05.336Z,5.23
2018-12-29T05:05:05.420Z,5.26
2018-12-29T05:06:05.313Z,5.29
2018-12-29T05:07:05.398Z,5.28
2018-12-29T05:08:05.295Z,5.28
2018-12-29T05:09:05.310Z,5.26
2018-12-29T05:10:05.330Z,5.33
2018-12-29T05:11:05.397Z,5.18
2018-12-29T05:12:05.246Z,5.23
2018-12-29T05:13:05.343Z,5.26
2018-12-29T05:14:05.230Z,5.31
2018-12-29T05:15:05.289Z,5.23
2018-12-29T05:16:12.644Z,5.20
2018-12-29T05:17:06.299Z,5.25
2018-12-29T05:18:05.193Z,5.22
2018-12-29T05:19:05.274Z,5.20
2018-12-29T05:20:05.172Z,5.13
2018-12-29T05:21:05.186Z,5.23
2018-12-29T05:22:05.140Z,5.16
2018-12-29T05:23:05.206Z,5.18
2018-12-29T05:24:05.117Z,5.16
2018-12-29T05:25:05.160Z,5.20
2018-12-29T05:26:05.091Z,5.08
2018-12-29T05:27:07.171Z,5.13
2018-12-29T05:28:05.073Z,5.12
2018-12-29T05:29:05.136Z,5.18
2018-12-29T05:30:05.068Z,5.16
2018-12-29T05:31:05.190Z,5.19
2018-12-29T05:32:05.029Z,5.18
2018-12-29T05:33:05.064Z,5.15
2018-12-29T05:34:05.007Z,5.15
2018-12-29T05:35:05.109Z,5.20
2018-12-29T05:36:04.983Z,5.16
2018-12-29T05:37:04.990Z,5.22
2018-12-29T05:38:04.983Z,5.20
2018-12-29T05:39:07.062Z,5.20
2018-12-29T05:40:04.955Z,5.22
2018-12-29T05:41:32.976Z,5.28
2018-12-29T05:42:04.933Z,5.25
2018-12-29T05:43:04.936Z,5.25
2018-12-29T05:44:04.938Z,5.25
2018-12-29T05:45:04.973Z,5.26
2018-12-29T05:46:04.891Z,5.25
2018-12-29T05:47:05.981Z,5.26
2018-12-29T05:48:04.857Z,5.25
2018-12-29T05:49:04.896Z,5.18
2018-12-29T05:50:04.866Z,5.25
2018-12-29T05:51:04.888Z,5.31
2018-12-29T05:52:04.821Z,5.26
2018-12-29T05:53:04.896Z,5.22
2018-12-29T05:54:04.794Z,5.31
2018-12-29T05:55:04.835Z,5.23
2018-12-29T05:56:04.774Z,5.15
2018-12-29T05:57:04.823Z,5.18
2018-12-29T05:58:04.758Z,5.20
2018-12-29T05:59:04.839Z,5.19
2018-12-29T06:00:04.797Z,5.19
2018-12-29T06:01:04.753Z,5.18
2018-12-29T06:02:04.712Z,5.31
2018-12-29T06:03:04.814Z,5.18
2018-12-29T06:04:04.691Z,5.20
2018-12-29T06:05:04.807Z,5.31
2018-12-29T06:06:04.681Z,5.22
2018-12-29T06:07:04.689Z,5.34
2018-12-29T06:08:04.641Z,5.22
2018-12-29T06:09:04.703Z,5.28
2018-12-29T06:10:04.662Z,5.25
2018-12-29T06:11:04.716Z,5.28
2018-12-29T06:12:04.593Z,5.28
2018-12-29T06:13:04.703Z,5.33
2018-12-29T06:14:04.635Z,5.29
2018-12-29T06:15:04.695Z,5.33
2018-12-29T06:16:04.549Z,5.34
2018-12-29T06:17:04.689Z,5.34
2018-12-29T06:18:04.556Z,5.31
2018-12-29T06:19:04.604Z,5.31
2018-12-29T06:20:04.547Z,5.36
2018-12-29T06:21:04.632Z,5.33
2018-12-29T06:22:04.519Z,5.29
2018-12-29T06:23:04.536Z,5.31
2018-12-29T06:24:04.541Z,5.29
2018-12-29T06:25:06.600Z,5.33
2018-12-29T06:26:04.476Z,5.37
2018-12-29T06:27:34.518Z,5.34
2018-12-29T06:28:04.430Z,5.34
2018-12-29T06:29:04.410Z,5.36
2018-12-29T06:30:04.445Z,5.38
2018-12-29T06:31:04.425Z,5.44
2018-12-29T06:32:06.400Z,5.38
2018-12-29T06:33:04.363Z,5.34
2018-12-29T06:34:05.406Z,5.43
2018-12-29T06:35:04.363Z,5.36
2018-12-29T06:36:04.395Z,5.40
2018-12-29T06:37:04.344Z,5.36
2018-12-29T06:38:04.393Z,5.40
2018-12-29T06:39:04.298Z,5.37
2018-12-29T06:40:04.398Z,5.40
2018-12-29T06:41:04.302Z,5.38
2018-12-29T06:42:04.331Z,5.40
2018-12-29T06:43:04.261Z,5.37
2018-12-29T06:44:04.323Z,5.43
2018-12-29T06:45:04.230Z,5.38
2018-12-29T06:46:04.275Z,5.40
2018-12-29T06:47:04.213Z,5.40
2018-12-29T06:48:04.294Z,5.43
2018-12-29T06:49:04.209Z,5.46
2018-12-29T06:50:04.262Z,5.40
2018-12-29T06:51:04.195Z,5.38
2018-12-29T06:52:04.177Z,5.34
2018-12-29T06:53:04.155Z,5.40
2018-12-29T06:54:04.212Z,5.47
2018-12-29T06:55:04.131Z,5.37
2018-12-29T06:56:04.237Z,5.43
2018-12-29T06:57:04.110Z,5.37
2018-12-29T06:58:04.147Z,5.40
2018-12-29T06:59:04.081Z,5.34
2018-12-29T07:00:04.169Z,5.38
2018-12-29T07:01:04.092Z,5.43
2018-12-29T07:02:04.151Z,5.34
2018-12-29T07:03:04.042Z,5.33
2018-12-29T07:04:04.070Z,5.37
2018-12-29T07:05:04.020Z,5.37
2018-12-29T07:06:04.093Z,5.36
2018-12-29T07:07:04.009Z,5.37
2018-12-29T07:08:04.077Z,5.36
2018-12-29T07:09:03.984Z,5.33
2018-12-29T07:10:03.996Z,5.36
2018-12-29T07:11:03.966Z,5.33
2018-12-29T07:12:06.053Z,5.34
2018-12-29T07:13:03.933Z,5.38
2018-12-29T07:14:04.937Z,5.37
2018-12-29T07:15:03.906Z,5.31
2018-12-29T07:16:03.953Z,5.37
2018-12-29T07:17:03.892Z,5.33
2018-12-29T07:18:03.944Z,5.31
2018-12-29T07:19:03.884Z,5.37
2018-12-29T07:20:04.895Z,5.36
2018-12-29T07:21:03.873Z,5.33
2018-12-29T07:22:03.876Z,5.28
2018-12-29T07:23:03.832Z,5.37
2018-12-29T07:24:03.885Z,5.31
2018-12-29T07:25:03.823Z,5.37
2018-12-29T07:26:03.819Z,5.38
2018-12-29T07:27:03.834Z,5.37
2018-12-29T07:28:03.805Z,5.40
2018-12-29T07:29:04.199Z,5.41
2018-12-29T07:30:03.824Z,5.38
2018-12-29T07:31:03.754Z,5.31
2018-12-29T07:32:03.906Z,5.34
2018-12-29T07:33:03.724Z,5.37
2018-12-29T07:34:03.805Z,5.34
2018-12-29T07:35:03.712Z,5.34
2018-12-29T07:36:03.820Z,5.31
2018-12-29T07:37:03.666Z,5.41
2018-12-29T07:38:03.702Z,5.40
2018-12-29T07:39:03.715Z,5.40
2018-12-29T07:40:03.693Z,5.33
2018-12-29T07:41:03.682Z,5.31
2018-12-29T07:42:03.719Z,5.37
2018-12-29T07:43:03.619Z,5.34
2018-12-29T07:44:03.609Z,5.36
2018-12-29T07:45:03.591Z,5.31
2018-12-29T07:46:03.628Z,5.40
2018-12-29T07:47:03.579Z,5.31
2018-12-29T07:48:03.631Z,5.33
2018-12-29T07:49:03.534Z,5.34
2018-12-29T07:50:03.555Z,5.31
2018-12-29T07:51:03.513Z,5.34
2018-12-29T07:52:03.584Z,5.41
2018-12-29T07:53:03.488Z,5.38
2018-12-29T07:54:03.570Z,5.36
2018-12-29T07:55:03.467Z,5.36
2018-12-29T07:56:03.490Z,5.38
2018-12-29T07:57:03.463Z,5.37
2018-12-29T07:58:05.544Z,5.40
2018-12-29T07:59:03.423Z,5.37
2018-12-29T08:00:04.431Z,5.41
2018-12-29T08:01:03.404Z,5.37
2018-12-29T08:02:03.453Z,5.37
2018-12-29T08:03:03.379Z,5.37
2018-12-29T08:04:03.435Z,5.43
2018-12-29T08:05:03.358Z,5.40
2018-12-29T08:06:04.375Z,5.46
2018-12-29T08:07:03.351Z,5.44
2018-12-29T08:08:03.359Z,5.61
2018-12-29T08:09:03.318Z,5.64
2018-12-29T08:10:03.373Z,5.59
2018-12-29T08:11:03.298Z,5.73
2018-12-29T08:12:03.322Z,5.81
2018-12-29T08:13:03.276Z,5.92
2018-12-29T08:14:03.300Z,5.99
2018-12-29T08:15:03.251Z,6.06
2018-12-29T08:16:03.314Z,6.06
2018-12-29T08:17:03.249Z,5.98
2018-12-29T08:18:03.324Z,5.84
2018-12-29T08:19:03.205Z,5.91
2018-12-29T08:20:03.235Z,5.83
2018-12-29T08:21:03.188Z,5.88
2018-12-29T08:22:03.281Z,5.77
2018-12-29T08:23:03.164Z,5.95
2018-12-29T08:24:03.266Z,5.88
2018-12-29T08:25:03.160Z,5.80
2018-12-29T08:26:03.174Z,5.80
2018-12-29T08:27:03.284Z,5.73
2018-12-29T08:28:03.219Z,5.77
2018-12-29T08:29:03.122Z,5.76
2018-12-29T08:30:03.108Z,5.80
2018-12-29T08:31:03.097Z,5.67
2018-12-29T08:32:03.161Z,5.76
2018-12-29T08:33:03.061Z,5.72
2018-12-29T08:34:03.150Z,5.80
2018-12-29T08:35:03.059Z,5.80
2018-12-29T08:36:03.080Z,5.88
2018-12-29T08:37:03.078Z,5.84
2018-12-29T08:38:03.060Z,5.90
2018-12-29T08:39:03.198Z,5.91
2018-12-29T08:40:03.097Z,5.83
2018-12-29T08:41:03.068Z,5.83
2018-12-29T08:42:03.060Z,5.83
2018-12-29T08:43:03.007Z,5.74
2018-12-29T08:44:05.128Z,5.88
2018-12-29T08:45:02.929Z,5.81
2018-12-29T08:46:03.930Z,5.77
2018-12-29T08:47:04.729Z,5.88
2018-12-29T08:48:03.019Z,5.76
2018-12-29T08:49:02.892Z,5.79
2018-12-29T08:50:02.932Z,5.76
2018-12-29T08:51:02.867Z,5.76
2018-12-29T08:52:03.899Z,5.74
2018-12-29T08:53:02.854Z,5.77
2018-12-29T08:54:02.880Z,5.81
2018-12-29T08:55:02.837Z,5.76
2018-12-29T08:56:02.872Z,5.79
2018-12-29T08:57:02.846Z,5.76
2018-12-29T08:58:02.904Z,5.77
2018-12-29T08:59:02.775Z,5.76
2018-12-29T09:00:02.822Z,5.74
2018-12-29T09:01:02.774Z,5.67
2018-12-29T09:02:02.857Z,5.69
2018-12-29T09:03:02.744Z,5.72
2018-12-29T09:04:02.835Z,5.72
2018-12-29T09:05:02.795Z,5.69
2018-12-29T09:06:02.752Z,5.72
2018-12-29T09:07:02.723Z,5.70
2018-12-29T09:08:02.748Z,5.69
2018-12-29T09:09:02.671Z,5.72
2018-12-29T09:10:02.814Z,5.73
2018-12-29T09:11:02.645Z,5.72
2018-12-29T09:12:02.726Z,5.64
2018-12-29T09:13:02.665Z,5.73
2018-12-29T09:14:02.715Z,5.69
2018-12-29T09:15:02.620Z,5.72
2018-12-29T09:16:02.725Z,5.73
2018-12-29T09:17:02.586Z,5.70
2018-12-29T09:18:02.681Z,5.70
2018-12-29T09:19:02.631Z,5.67
2018-12-29T09:20:02.623Z,5.74
2018-12-29T09:21:02.568Z,5.77
2018-12-29T09:22:02.665Z,5.77
2018-12-29T09:23:02.556Z,5.79
2018-12-29T09:24:02.582Z,5.80
2018-12-29T09:25:02.526Z,5.76
2018-12-29T09:26:02.568Z,5.76
2018-12-29T09:27:02.491Z,5.88
2018-12-29T09:28:02.536Z,5.77
2018-12-29T09:29:02.501Z,5.90
2018-12-29T09:30:03.537Z,5.94
2018-12-29T09:31:02.436Z,5.79
2018-12-29T09:32:09.481Z,5.83
2018-12-29T09:33:02.427Z,5.88
2018-12-29T09:34:02.440Z,5.92
2018-12-29T09:35:02.435Z,5.87
2018-12-29T09:36:02.427Z,5.83
2018-12-29T09:37:02.383Z,5.84
2018-12-29T09:38:03.395Z,5.83
2018-12-29T09:39:02.363Z,5.91
2018-12-29T09:40:02.369Z,5.98
2018-12-29T09:41:02.355Z,5.90
2018-12-29T09:42:02.380Z,5.88
2018-12-29T09:43:02.320Z,5.81
2018-12-29T09:44:02.759Z,5.79
2018-12-29T09:45:02.298Z,5.94
2018-12-29T09:46:02.313Z,5.87
2018-12-29T09:47:02.486Z,5.94
2018-12-29T09:48:02.334Z,5.92
2018-12-29T09:49:02.237Z,5.88
2018-12-29T09:50:02.336Z,5.95
2018-12-29T09:51:02.222Z,5.97
2018-12-29T09:52:02.243Z,5.97
2018-12-29T09:53:02.319Z,5.94
2018-12-29T09:54:02.242Z,5.94
2018-12-29T09:55:02.187Z,5.87
2018-12-29T09:56:02.272Z,5.99
2018-12-29T09:57:02.156Z,5.94
2018-12-29T09:58:02.208Z,6.07
2018-12-29T09:59:02.148Z,6.07
2018-12-29T10:00:02.197Z,6.05
2018-12-29T10:01:02.109Z,6.13
2018-12-29T10:02:02.263Z,6.07
2018-12-29T10:03:02.118Z,6.06
2018-12-29T10:04:03.140Z,6.05
2018-12-29T10:05:02.065Z,6.01
2018-12-29T10:06:02.128Z,5.98
2018-12-29T10:07:02.043Z,6.01
2018-12-29T10:08:02.067Z,6.02
2018-12-29T10:09:02.025Z,6.07
2018-12-29T10:10:02.055Z,6.01
2018-12-29T10:11:01.996Z,6.01
2018-12-29T10:12:02.067Z,5.94
2018-12-29T10:13:02.034Z,5.95
2018-12-29T10:14:02.093Z,5.99
2018-12-29T10:15:01.987Z,6.06
2018-12-29T10:16:01.994Z,5.90
2018-12-29T10:17:01.934Z,5.98
2018-12-29T10:18:02.034Z,6.05
2018-12-29T10:19:01.910Z,5.95
2018-12-29T10:20:01.939Z,5.99
2018-12-29T10:21:01.906Z,6.01
2018-12-29T10:22:01.948Z,6.05
2018-12-29T10:23:01.884Z,6.07
2018-12-29T10:24:01.979Z,6.06
2018-12-29T10:25:01.861Z,6.17
2018-12-29T10:26:01.856Z,6.10
2018-12-29T10:27:01.826Z,6.07
2018-12-29T10:28:01.904Z,6.25
2018-12-29T10:29:01.934Z,6.26
2018-12-29T10:30:01.969Z,6.12
2018-12-29T10:31:01.789Z,6.02
2018-12-29T10:32:01.939Z,6.13
2018-12-29T10:33:01.758Z,6.12
2018-12-29T10:34:01.854Z,6.12
2018-12-29T10:35:01.747Z,6.20
2018-12-29T10:36:01.821Z,6.34
2018-12-29T10:37:01.725Z,6.25
2018-12-29T10:38:01.771Z,6.20
2018-12-29T10:39:01.708Z,6.22
2018-12-29T10:40:01.755Z,6.19
2018-12-29T10:41:01.687Z,6.20
2018-12-29T10:42:02.790Z,6.25
2018-12-29T10:43:01.695Z,6.20
2018-12-29T10:44:01.706Z,6.29
2018-12-29T10:45:01.624Z,6.26
2018-12-29T10:46:01.700Z,6.22
2018-12-29T10:47:01.607Z,6.19
2018-12-29T10:48:01.710Z,6.22
2018-12-29T10:49:01.597Z,6.22
2018-12-29T10:50:01.604Z,6.28
2018-12-29T10:51:01.588Z,6.28
2018-12-29T10:52:01.618Z,6.22
2018-12-29T10:53:01.545Z,6.22
2018-12-29T10:54:01.559Z,6.25
2018-12-29T10:55:01.566Z,6.26
2018-12-29T10:56:01.550Z,6.22
2018-12-29T10:57:01.509Z,6.25
2018-12-29T10:58:01.565Z,6.28
2018-12-29T10:59:01.520Z,6.31
2018-12-29T11:00:01.607Z,6.22
2018-12-29T11:01:01.465Z,6.32
2018-12-29T11:02:09.478Z,6.31
2018-12-29T11:03:01.461Z,6.41
2018-12-29T11:04:02.558Z,6.46
2018-12-29T11:05:01.421Z,6.43
2018-12-29T11:06:02.436Z,6.28
2018-12-29T11:07:01.389Z,6.38
2018-12-29T11:08:01.472Z,6.39
2018-12-29T11:09:01.406Z,6.39
2018-12-29T11:10:01.436Z,6.38
2018-12-29T11:11:01.352Z,6.39
2018-12-29T11:12:01.365Z,6.46
2018-12-29T11:13:01.363Z,6.35
2018-12-29T11:14:01.390Z,6.41
2018-12-29T11:15:01.306Z,6.38
2018-12-29T11:16:01.437Z,6.43
2018-12-29T11:17:01.308Z,6.49
2018-12-29T11:18:01.295Z,6.53
2018-12-29T11:19:01.272Z,6.52
2018-12-29T11:20:01.308Z,6.50
2018-12-29T11:21:02.523Z,6.52
2018-12-29T11:22:01.316Z,6.44
2018-12-29T11:23:01.238Z,6.39
2018-12-29T11:24:01.263Z,6.38
2018-12-29T11:25:01.196Z,6.44
2018-12-29T11:26:01.261Z,6.57
2018-12-29T11:27:01.173Z,6.56
2018-12-29T11:28:01.256Z,6.52
2018-12-29T11:29:01.219Z,6.54
2018-12-29T11:30:01.175Z,6.46
2018-12-29T11:31:01.154Z,6.54
2018-12-29T11:32:01.224Z,6.50
2018-12-29T11:33:01.119Z,6.53
2018-12-29T11:34:01.221Z,6.57
2018-12-29T11:35:01.101Z,6.62
2018-12-29T11:36:01.128Z,6.60
2018-12-29T11:37:01.068Z,6.54
2018-12-29T11:38:01.127Z,6.52
2018-12-29T11:39:01.060Z,6.65
2018-12-29T11:40:01.136Z,6.62
2018-12-29T11:41:01.016Z,6.71
2018-12-29T11:42:01.076Z,6.62
2018-12-29T11:43:01.011Z,6.71
2018-12-29T11:44:01.126Z,6.59
2018-12-29T11:45:01.003Z,6.62
2018-12-29T11:46:01.071Z,6.54
2018-12-29T11:47:00.953Z,6.60
2018-12-29T11:48:01.031Z,6.65
2018-12-29T11:49:02.017Z,6.64
2018-12-29T11:50:02.990Z,6.64
2018-12-29T11:51:00.916Z,6.53
2018-12-29T11:52:01.936Z,6.47
2018-12-29T11:53:00.902Z,6.60
2018-12-29T11:54:00.946Z,6.52
2018-12-29T11:55:01.436Z,6.52
2018-12-29T11:56:00.932Z,6.50
2018-12-29T11:57:00.848Z,6.54
2018-12-29T11:58:00.946Z,6.50
2018-12-29T11:59:00.869Z,6.60
2018-12-29T12:00:00.889Z,6.54
2018-12-29T12:01:00.801Z,6.62
2018-12-29T12:02:01.899Z,6.62
2018-12-29T12:03:00.832Z,6.65
2018-12-29T12:04:00.788Z,6.50
2018-12-29T12:05:00.815Z,6.50
2018-12-29T12:06:00.793Z,6.52
2018-12-29T12:07:00.758Z,6.47
2018-12-29T12:08:00.814Z,6.52
2018-12-29T12:09:00.714Z,6.49
2018-12-29T12:10:00.742Z,6.49
2018-12-29T12:11:00.688Z,6.52
2018-12-29T12:12:00.729Z,6.54
2018-12-29T12:13:00.702Z,6.53
2018-12-29T12:14:00.761Z,6.52
2018-12-29T12:15:00.669Z,6.67
2018-12-29T12:16:00.677Z,6.60
2018-12-29T12:17:00.625Z,6.65
2018-12-29T12:18:00.727Z,6.53
2018-12-29T12:19:00.747Z,6.67
2018-12-29T12:20:00.718Z,6.68
2018-12-29T12:21:00.584Z,6.65
2018-12-29T12:22:00.628Z,6.64
2018-12-29T12:23:00.575Z,6.64
2018-12-29T12:24:00.672Z,6.60
2018-12-29T12:25:00.557Z,6.65
2018-12-29T12:26:00.630Z,6.71
2018-12-29T12:27:00.527Z,6.82
2018-12-29T12:28:00.603Z,6.67
2018-12-29T12:29:00.537Z,6.82
2018-12-29T12:30:00.612Z,6.83
2018-12-29T12:31:00.483Z,6.77
2018-12-29T12:32:00.592Z,6.82
2018-12-29T12:33:00.466Z,6.78
2018-12-29T12:34:02.578Z,6.90
2018-12-29T12:35:00.444Z,6.90
2018-12-29T12:36:00.488Z,6.89
2018-12-29T12:37:00.410Z,6.89
2018-12-29T12:38:00.506Z,6.78
2018-12-29T12:39:00.384Z,6.87
2018-12-29T12:40:00.521Z,6.92
2018-12-29T12:41:00.421Z,6.89
2018-12-29T12:42:00.461Z,6.90
2018-12-29T12:43:00.345Z,6.93
2018-12-29T12:44:01.365Z,6.89
2018-12-29T12:45:00.340Z,7.00
2018-12-29T12:46:00.391Z,6.96
2018-12-29T12:47:00.299Z,6.93
2018-12-29T12:48:05.207Z,7.00
2018-12-29T12:49:01.284Z,7.03
2018-12-29T12:50:00.301Z,7.05
2018-12-29T12:51:00.313Z,7.11
2018-12-29T12:52:00.324Z,7.13
2018-12-29T12:53:00.268Z,7.19
2018-12-29T12:54:00.302Z,7.19
2018-12-29T12:55:00.227Z,7.18
2018-12-29T12:56:00.255Z,7.11
2018-12-29T12:57:00.189Z,7.19
2018-12-29T12:58:00.262Z,7.11
2018-12-29T12:59:00.171Z,7.15
2018-12-29T13:00:00.311Z,7.28
2018-12-29T13:01:00.159Z,7.26
2018-12-29T13:02:00.158Z,7.23
2018-12-29T13:03:00.673Z,7.21
2018-12-29T13:04:00.189Z,7.31
2018-12-29T13:05:00.258Z,7.29
2018-12-29T13:06:00.209Z,7.14
2018-12-29T13:07:00.133Z,7.19
2018-12-29T13:08:00.104Z,7.18
2018-12-29T13:09:00.056Z,7.18
2018-12-29T13:10:00.166Z,7.10
2018-12-29T13:11:00.032Z,7.23
2018-12-29T13:12:00.223Z,7.22
2018-12-29T13:13:00.030Z,7.14
2018-12-29T13:14:00.056Z,7.15
2018-12-29T13:15:00.012Z,7.15
2018-12-29T13:16:00.098Z,7.19
2018-12-29T13:16:59.977Z,7.15
2018-12-29T13:18:00.098Z,7.14